Strona główna
METAR-TAF:

METAR-TAF

Lotnisko :

William H. Morse State Airport

Bennington, Vermont, Stany Zjednoczone

Szerokość geograficzna: 42-53-24N, Długość geograficzna: 073-14-47W, wysokość: 252 m

Aktualna obserwacja pogody

Raport powstał 25 minut temu, godzina 10:32 UTC
Wiatr 3 kt od wschód
Temperatura 1°C
Wilgotność 86%
Ciśnienie 1005 hPa
Widzialność: 8.0 km
Przerywane chmury na wysokości 500 ft
Zachmurzenie całkowite na wysokości 1000 ft
deszcz, zamglenie

METAR: KDDH 191032Z AUTO 08003KT 5SM RA BR BKN005 OVC010 01/M01 A2969 RMK AO2 P0011 T00061006

czas: 05:57 (10:57 UTC)


TAF: brakujący

Obserwacja i prognoza pogody dla ponad 4000 lotnisk (raport METAR i TAF).

Dostępne stacje oznaczono żółtymi i czerwonymi punktami na mapie.

Najedź kursorem aby zobaczyć nazwę stacji.

Kliknij aby zobaczyć obserwacje i prognozy pogody.

Aby zmienić mapę: kliknij na zielony przycisk z czarnym krzyżykiem, aby powiększyć; na zielony przycisk z myślnikiem, aby pomniejszyć; na zielone strzałki, aby przejść do map sąsiednich.


METAR-TAF: